createdAt,value
2018-10-12T00:00:04.105Z,21.50
2018-10-12T00:02:31.623Z,21.87
2018-10-12T00:04:59.182Z,21.10
2018-10-12T00:07:26.710Z,21.47
2018-10-12T00:09:54.267Z,21.83
2018-10-12T00:12:21.858Z,22.07
2018-10-12T00:14:49.386Z,23.20
2018-10-12T00:17:17.020Z,22.50
2018-10-12T00:19:44.498Z,21.77
2018-10-12T00:22:12.079Z,22.20
2018-10-12T00:24:39.598Z,21.73
2018-10-12T00:27:07.070Z,22.30
2018-10-12T00:29:34.614Z,21.40
2018-10-12T00:32:02.108Z,23.33
2018-10-12T00:34:29.602Z,22.77
2018-10-12T00:36:57.187Z,22.23
2018-10-12T00:39:24.669Z,21.50
2018-10-12T00:41:52.163Z,23.43
2018-10-12T00:44:19.608Z,23.33
2018-10-12T00:46:47.093Z,22.40
2018-10-12T00:49:14.510Z,23.13
2018-10-12T00:51:42.026Z,22.60
2018-10-12T00:54:09.465Z,21.50
2018-10-12T00:56:37.071Z,24.27
2018-10-12T00:59:04.653Z,24.13
2018-10-12T01:01:32.176Z,23.93
2018-10-12T01:03:59.639Z,23.83
2018-10-12T01:06:27.179Z,23.60
2018-10-12T01:08:54.650Z,23.50
2018-10-12T01:11:22.138Z,23.17
2018-10-12T01:13:49.603Z,23.20
2018-10-12T01:16:17.109Z,23.97
2018-10-12T01:18:44.614Z,23.43
2018-10-12T01:21:12.430Z,23.93
2018-10-12T01:23:39.949Z,24.27
2018-10-12T01:26:07.682Z,23.93
2018-10-12T01:28:35.175Z,25.23
2018-10-12T01:31:02.771Z,24.40
2018-10-12T01:33:30.256Z,25.10
2018-10-12T01:35:57.815Z,24.97
2018-10-12T01:38:25.289Z,24.13
2018-10-12T01:40:53.006Z,24.13
2018-10-12T01:43:20.564Z,24.60
2018-10-12T01:45:48.114Z,26.93
2018-10-12T01:48:15.614Z,25.70
2018-10-12T01:50:43.141Z,24.97
2018-10-12T01:53:10.682Z,23.83
2018-10-12T01:55:38.172Z,26.73
2018-10-12T01:58:05.752Z,24.87
2018-10-12T02:00:33.303Z,24.37
2018-10-12T02:03:00.813Z,24.30
2018-10-12T02:05:28.370Z,24.50
2018-10-12T02:07:55.893Z,26.63
2018-10-12T02:10:23.339Z,25.33
2018-10-12T02:12:50.819Z,25.53
2018-10-12T02:15:18.319Z,23.93
2018-10-12T02:17:45.846Z,25.80
2018-10-12T02:20:13.313Z,25.17
2018-10-12T02:22:41.346Z,23.40
2018-10-12T02:25:09.591Z,25.53
2018-10-12T02:27:37.103Z,26.60
2018-10-12T02:30:05.612Z,24.33
2018-10-12T02:32:33.124Z,25.97
2018-10-12T02:35:00.575Z,24.37
2018-10-12T02:37:28.047Z,24.60
2018-10-12T02:39:55.757Z,24.70
2018-10-12T02:42:23.245Z,25.63
2018-10-12T02:44:50.775Z,25.77
2018-10-12T02:47:18.232Z,23.83
2018-10-12T02:49:45.772Z,24.53
2018-10-12T02:52:13.271Z,25.80
2018-10-12T02:54:40.746Z,25.53
2018-10-12T02:57:08.286Z,24.60
2018-10-12T02:59:35.773Z,25.80
2018-10-12T03:02:03.274Z,25.47
2018-10-12T03:04:30.759Z,25.43
2018-10-12T03:07:04.026Z,25.93
2018-10-12T03:09:32.470Z,25.47
2018-10-12T03:11:59.923Z,24.73
2018-10-12T03:14:27.421Z,24.67
2018-10-12T03:16:54.888Z,26.03
2018-10-12T03:19:22.386Z,25.80
2018-10-12T03:21:49.898Z,27.70
2018-10-12T03:24:17.456Z,26.33
2018-10-12T03:26:44.896Z,25.60
2018-10-12T03:29:12.423Z,26.90
2018-10-12T03:31:39.932Z,25.23
2018-10-12T03:34:09.146Z,27.33
2018-10-12T03:36:36.690Z,26.93
2018-10-12T03:39:05.483Z,26.73
2018-10-12T03:41:33.007Z,26.83
2018-10-12T03:44:00.593Z,26.77
2018-10-12T03:46:28.059Z,27.13
2018-10-12T03:48:55.663Z,25.37
2018-10-12T03:51:23.158Z,26.80
2018-10-12T03:53:50.684Z,26.43
2018-10-12T03:56:18.288Z,26.73
2018-10-12T03:58:45.810Z,26.23
2018-10-12T04:01:13.292Z,28.07
2018-10-12T04:03:40.775Z,25.20
2018-10-12T04:06:08.286Z,26.60
2018-10-12T04:08:35.779Z,27.37
2018-10-12T04:11:03.230Z,28.00
2018-10-12T04:13:30.719Z,26.07
2018-10-12T04:15:58.217Z,26.30
2018-10-12T04:18:25.710Z,27.30
2018-10-12T04:20:53.155Z,26.83
2018-10-12T04:23:20.722Z,25.70
2018-10-12T04:25:48.282Z,25.40
2018-10-12T04:28:15.754Z,26.80
2018-10-12T04:30:43.254Z,25.87
2018-10-12T04:33:10.734Z,25.50
2018-10-12T04:35:38.215Z,26.00
2018-10-12T04:38:05.700Z,27.10
2018-10-12T04:41:09.110Z,25.77
2018-10-12T04:43:36.618Z,25.53
2018-10-12T04:46:06.496Z,27.20
2018-10-12T04:48:34.919Z,26.83
2018-10-12T04:51:03.558Z,26.27
2018-10-12T04:53:31.063Z,27.27
2018-10-12T04:55:58.569Z,27.67
2018-10-12T04:58:26.288Z,27.63
2018-10-12T05:00:53.850Z,27.37
2018-10-12T05:03:21.483Z,28.60
2018-10-12T05:05:48.979Z,27.47
2018-10-12T05:08:16.500Z,27.70
2018-10-12T05:10:44.037Z,27.97
2018-10-12T05:13:11.523Z,28.37
2018-10-12T05:15:39.059Z,27.60
2018-10-12T05:18:06.547Z,28.87
2018-10-12T05:20:34.112Z,29.10
2018-10-12T05:23:01.613Z,29.67
2018-10-12T05:25:29.103Z,29.10
2018-10-12T05:27:56.585Z,29.37
2018-10-12T05:30:24.054Z,27.80
2018-10-12T05:32:51.510Z,28.70
2018-10-12T05:35:19.081Z,29.30
2018-10-12T05:37:46.602Z,28.97
2018-10-12T05:40:16.516Z,28.83
2018-10-12T05:42:44.312Z,29.00
2018-10-12T05:45:11.803Z,30.10
2018-10-12T05:47:39.276Z,30.00
2018-10-12T05:50:08.443Z,30.37
2018-10-12T05:52:36.546Z,31.07
2018-10-12T05:55:04.147Z,30.53
2018-10-12T05:57:33.959Z,29.30
2018-10-12T06:00:02.334Z,31.00
2018-10-12T06:02:29.888Z,30.47
2018-10-12T06:04:57.406Z,28.87
2018-10-12T06:07:24.969Z,30.17
2018-10-12T06:09:52.600Z,30.97
2018-10-12T06:12:19.935Z,30.17
2018-10-12T06:14:47.447Z,29.50
2018-10-12T06:17:14.918Z,29.77
2018-10-12T06:19:42.394Z,30.60
2018-10-12T06:22:10.008Z,28.70
2018-10-12T06:24:37.488Z,29.67
2018-10-12T06:27:04.986Z,30.43
2018-10-12T06:29:32.530Z,29.47
2018-10-12T06:32:00.454Z,29.70
2018-10-12T06:34:27.913Z,29.90
2018-10-12T06:36:55.398Z,29.40
2018-10-12T06:39:22.877Z,31.20
2018-10-12T06:41:50.614Z,29.27
2018-10-12T06:44:17.922Z,29.03
2018-10-12T06:46:45.664Z,29.23
2018-10-12T06:49:13.063Z,29.47
2018-10-12T06:51:40.541Z,29.00
2018-10-12T06:54:08.432Z,29.40
2018-10-12T06:56:35.926Z,28.80
2018-10-12T06:59:03.387Z,29.37
2018-10-12T07:01:30.897Z,29.30
2018-10-12T07:03:58.616Z,28.50
2018-10-12T07:06:26.237Z,28.87
2018-10-12T07:08:53.887Z,29.33
2018-10-12T07:11:21.584Z,29.50
2018-10-12T07:13:49.603Z,28.50
2018-10-12T07:16:17.903Z,28.73
2018-10-12T07:18:45.455Z,28.57
2018-10-12T07:21:13.014Z,28.50
2018-10-12T07:23:40.487Z,29.37
2018-10-12T07:26:08.026Z,28.60
2018-10-12T07:28:35.891Z,29.00
2018-10-12T07:31:04.294Z,28.60
2018-10-12T07:33:31.940Z,26.97
2018-10-12T07:35:59.454Z,29.57
2018-10-12T07:38:26.951Z,27.30
2018-10-12T07:40:54.632Z,28.63
2018-10-12T07:43:22.079Z,28.60
2018-10-12T07:45:49.834Z,27.40
2018-10-12T07:48:17.469Z,29.07
2018-10-12T07:50:44.872Z,27.57
2018-10-12T07:53:12.434Z,28.80
2018-10-12T07:55:39.880Z,28.93
2018-10-12T07:58:07.426Z,27.90
2018-10-12T08:00:35.083Z,27.63
2018-10-12T08:03:02.520Z,26.73
2018-10-12T08:05:29.970Z,28.17
2018-10-12T08:07:57.442Z,27.10
2018-10-12T08:10:24.892Z,27.10
2018-10-12T08:12:52.372Z,26.90
2018-10-12T08:15:19.858Z,27.30
2018-10-12T08:17:47.427Z,27.00
2018-10-12T08:20:14.991Z,26.23
2018-10-12T08:22:42.483Z,27.13
2018-10-12T08:25:10.000Z,25.87
2018-10-12T08:27:37.493Z,25.00
2018-10-12T08:30:05.288Z,26.50
2018-10-12T08:32:32.815Z,24.10
2018-10-12T08:35:00.293Z,24.20
2018-10-12T08:37:27.835Z,24.40
2018-10-12T08:39:55.320Z,24.23
2018-10-12T08:42:22.846Z,22.50
2018-10-12T08:44:50.299Z,23.40
2018-10-12T08:47:18.015Z,22.67
2018-10-12T08:49:45.462Z,23.50
2018-10-12T08:52:13.012Z,23.30
2018-10-12T08:54:40.464Z,22.10
2018-10-12T08:57:07.962Z,21.30
2018-10-12T08:59:35.402Z,21.17
2018-10-12T09:02:02.906Z,20.90
2018-10-12T09:04:30.371Z,21.50
2018-10-12T09:06:57.894Z,20.47
2018-10-12T09:09:25.391Z,20.83
2018-10-12T09:11:52.870Z,21.67
2018-10-12T09:14:20.342Z,21.47
2018-10-12T09:16:47.818Z,21.03
2018-10-12T09:19:15.297Z,20.67
2018-10-12T09:21:42.777Z,20.17
2018-10-12T09:24:10.265Z,20.10
2018-10-12T09:26:37.817Z,19.97
2018-10-12T09:29:05.580Z,19.67
2018-10-12T09:31:33.047Z,19.90
2018-10-12T09:34:00.544Z,20.00
2018-10-12T09:36:28.051Z,20.30
2018-10-12T09:38:55.684Z,20.53
2018-10-12T09:41:23.149Z,19.23
2018-10-12T09:43:50.645Z,20.37
2018-10-12T09:46:18.393Z,19.23
2018-10-12T09:48:45.897Z,19.43
2018-10-12T09:51:13.386Z,18.07
2018-10-12T09:53:40.885Z,18.90
2018-10-12T09:56:08.527Z,18.30
2018-10-12T09:58:35.998Z,19.90
2018-10-12T10:01:11.608Z,17.80
2018-10-12T10:03:44.947Z,17.60
2018-10-12T10:06:12.437Z,17.70
2018-10-12T10:08:40.020Z,17.33
2018-10-12T10:11:07.467Z,16.30
2018-10-12T10:13:35.076Z,17.80
2018-10-12T10:16:02.640Z,17.20
2018-10-12T10:18:30.182Z,17.03
2018-10-12T10:20:57.740Z,16.70
2018-10-12T10:23:25.271Z,16.73
2018-10-12T10:25:52.994Z,18.70
2018-10-12T10:28:20.484Z,17.77
2018-10-12T10:30:48.079Z,17.00
2018-10-12T10:33:15.641Z,17.70
2018-10-12T10:35:43.104Z,17.03
2018-10-12T10:38:10.715Z,15.43
2018-10-12T10:40:38.178Z,15.50
2018-10-12T10:43:05.960Z,16.60
2018-10-12T10:45:33.448Z,17.10
2018-10-12T10:48:00.955Z,16.30
2018-10-12T10:50:28.486Z,15.30
2018-10-12T10:52:56.128Z,15.67
2018-10-12T10:55:23.734Z,15.17
2018-10-12T10:57:51.171Z,15.23
2018-10-12T11:00:18.847Z,15.00
2018-10-12T11:02:46.349Z,15.73
2018-10-12T11:05:13.848Z,15.00
2018-10-12T11:07:41.462Z,15.13
2018-10-12T11:10:08.948Z,14.57
2018-10-12T11:12:36.625Z,14.80
2018-10-12T11:15:04.555Z,15.83
2018-10-12T11:17:32.113Z,16.07
2018-10-12T11:19:59.674Z,15.37
2018-10-12T11:22:27.155Z,14.67
2018-10-12T11:24:54.830Z,14.67
2018-10-12T11:27:22.350Z,15.70
2018-10-12T11:29:49.833Z,15.10
2018-10-12T11:32:17.288Z,15.67
2018-10-12T11:34:44.813Z,12.70
2018-10-12T11:37:12.280Z,13.10
2018-10-12T11:39:39.764Z,14.07
2018-10-12T11:42:07.296Z,12.80
2018-10-12T11:44:34.854Z,13.03
2018-10-12T11:47:02.311Z,12.20
2018-10-12T11:49:29.809Z,11.40
2018-10-12T11:51:57.281Z,11.13
2018-10-12T11:54:24.780Z,10.57
2018-10-12T11:56:53.162Z,12.10
2018-10-12T11:59:21.402Z,10.60
2018-10-12T12:01:48.931Z,10.83
2018-10-12T12:04:16.416Z,10.90
2018-10-12T12:06:43.887Z,10.60
2018-10-12T12:09:11.371Z,10.60
2018-10-12T12:11:39.043Z,9.03
2018-10-12T12:14:06.535Z,9.53
2018-10-12T12:16:34.051Z,8.97
2018-10-12T12:19:01.913Z,8.30
2018-10-12T12:21:29.732Z,8.00
2018-10-12T12:23:57.199Z,8.70
2018-10-12T12:26:24.791Z,8.47
2018-10-12T12:28:52.285Z,8.43
2018-10-12T12:31:19.812Z,8.70
2018-10-12T12:33:47.507Z,8.67
2018-10-12T12:36:15.120Z,9.30
2018-10-12T12:38:43.308Z,8.60
2018-10-12T12:41:11.310Z,8.90
2018-10-12T12:43:38.838Z,8.30
2018-10-12T12:46:06.379Z,8.53
2018-10-12T12:48:34.145Z,8.23
2018-10-12T12:51:01.347Z,8.07
2018-10-12T12:53:28.788Z,7.93
2018-10-12T12:55:56.256Z,8.47
2018-10-12T12:58:23.911Z,8.33
2018-10-12T13:00:51.486Z,8.40
2018-10-12T13:03:18.936Z,8.53
2018-10-12T13:05:46.426Z,8.60
2018-10-12T13:08:13.895Z,8.50
2018-10-12T13:10:41.502Z,8.80
2018-10-12T13:13:08.975Z,8.47
2018-10-12T13:15:36.455Z,8.33
2018-10-12T13:18:03.958Z,8.57
2018-10-12T13:20:31.447Z,9.03
2018-10-12T13:22:58.890Z,8.00
2018-10-12T13:25:26.488Z,8.37
2018-10-12T13:27:53.977Z,7.90
2018-10-12T13:30:21.540Z,7.80
2018-10-12T13:32:49.036Z,7.73
2018-10-12T13:35:16.524Z,7.33
2018-10-12T13:37:44.026Z,7.13
2018-10-12T13:40:11.537Z,7.60
2018-10-12T13:42:39.255Z,6.70
2018-10-12T13:45:07.243Z,6.83
2018-10-12T13:47:34.732Z,7.77
2018-10-12T13:50:02.289Z,6.97
2018-10-12T13:52:29.791Z,6.57
2018-10-12T13:54:57.252Z,6.10
2018-10-12T13:57:24.728Z,6.13
2018-10-12T13:59:52.179Z,6.37
2018-10-12T14:02:19.737Z,6.60
2018-10-12T14:04:47.204Z,6.10
2018-10-12T14:07:14.679Z,6.20
2018-10-12T14:09:42.215Z,6.43
2018-10-12T14:12:09.777Z,6.10
2018-10-12T14:14:37.210Z,6.73
2018-10-12T14:17:04.735Z,5.80
2018-10-12T14:19:32.369Z,6.23
2018-10-12T14:21:59.715Z,6.20
2018-10-12T14:24:27.151Z,7.10
2018-10-12T14:26:54.717Z,5.90
2018-10-12T14:29:22.174Z,6.10
2018-10-12T14:31:49.674Z,6.73
2018-10-12T14:34:17.156Z,6.10
2018-10-12T14:36:44.662Z,6.00
2018-10-12T14:39:12.120Z,6.03
2018-10-12T14:41:39.733Z,6.37
2018-10-12T14:44:07.357Z,6.07
2018-10-12T14:46:34.912Z,6.40
2018-10-12T14:49:02.554Z,5.60
2018-10-12T14:51:30.361Z,5.87
2018-10-12T14:53:58.136Z,5.50
2018-10-12T14:56:25.648Z,6.07
2018-10-12T14:58:53.398Z,5.60
2018-10-12T15:01:20.890Z,5.47
2018-10-12T15:03:48.365Z,5.87
2018-10-12T15:06:15.917Z,6.17
2018-10-12T15:08:43.381Z,6.60
2018-10-12T15:11:10.863Z,6.57
2018-10-12T15:13:38.340Z,6.20
2018-10-12T15:16:05.879Z,6.63
2018-10-12T15:18:33.427Z,6.10
2018-10-12T15:21:00.948Z,6.00
2018-10-12T15:23:28.408Z,6.60
2018-10-12T15:25:55.864Z,5.80
2018-10-12T15:28:23.357Z,6.27
2018-10-12T15:30:50.816Z,5.87
2018-10-12T15:33:18.527Z,6.47
2018-10-12T15:35:45.992Z,6.17
2018-10-12T15:38:13.496Z,6.47
2018-10-12T15:40:41.030Z,6.90
2018-10-12T15:43:08.800Z,6.90
2018-10-12T15:45:36.310Z,6.30
2018-10-12T15:48:03.844Z,6.70
2018-10-12T15:50:31.319Z,6.70
2018-10-12T15:52:58.870Z,6.40
2018-10-12T15:55:26.330Z,6.70
2018-10-12T15:57:53.831Z,6.40
2018-10-12T16:00:21.435Z,6.70
2018-10-12T16:02:48.964Z,7.37
2018-10-12T16:05:16.429Z,7.10
2018-10-12T16:07:43.929Z,7.27
2018-10-12T16:10:11.456Z,6.97
2018-10-12T16:12:38.967Z,7.67
2018-10-12T16:15:06.468Z,7.43
2018-10-12T16:17:33.967Z,7.87
2018-10-12T16:20:01.445Z,7.70
2018-10-12T16:22:28.965Z,7.10
2018-10-12T16:25:07.969Z,8.30
2018-10-12T16:27:35.484Z,7.20
2018-10-12T16:30:04.308Z,7.60
2018-10-12T16:32:31.827Z,7.37
2018-10-12T16:34:59.334Z,8.10
2018-10-12T16:37:26.842Z,7.70
2018-10-12T16:39:54.292Z,7.57
2018-10-12T16:42:21.806Z,7.63
2018-10-12T16:44:49.253Z,8.30
2018-10-12T16:47:16.778Z,8.50
2018-10-12T16:49:44.272Z,7.40
2018-10-12T16:52:11.754Z,7.53
2018-10-12T16:54:39.284Z,7.80
2018-10-12T16:57:06.771Z,7.30
2018-10-12T16:59:34.291Z,8.23
2018-10-12T17:02:01.983Z,7.40
2018-10-12T17:04:29.552Z,7.67
2018-10-12T17:06:57.091Z,8.47
2018-10-12T17:09:24.654Z,8.30
2018-10-12T17:11:52.119Z,8.10
2018-10-12T17:14:19.711Z,8.33
2018-10-12T17:16:47.171Z,7.90
2018-10-12T17:19:14.641Z,7.73
2018-10-12T17:21:42.192Z,8.20
2018-10-12T17:24:09.659Z,8.10
2018-10-12T17:26:37.158Z,8.63
2018-10-12T17:29:04.689Z,8.07
2018-10-12T17:31:32.119Z,8.30
2018-10-12T17:33:59.614Z,9.40
2018-10-12T17:36:27.078Z,8.70
2018-10-12T17:38:54.562Z,8.40
2018-10-12T17:41:22.019Z,9.27
2018-10-12T17:43:49.515Z,8.40
2018-10-12T17:46:17.163Z,7.70
2018-10-12T17:48:44.690Z,8.67
2018-10-12T17:51:12.881Z,8.90
2018-10-12T17:53:40.363Z,7.80
2018-10-12T17:56:08.173Z,8.73
2018-10-12T17:58:35.734Z,9.17
2018-10-12T18:01:03.596Z,8.00
2018-10-12T18:03:31.257Z,8.83
2018-10-12T18:05:58.832Z,8.83
2018-10-12T18:08:26.356Z,8.60
2018-10-12T18:10:53.837Z,7.53
2018-10-12T18:13:21.332Z,8.53
2018-10-12T18:15:48.822Z,8.40
2018-10-12T18:18:16.276Z,8.57
2018-10-12T18:20:43.763Z,7.93
2018-10-12T18:23:11.258Z,8.10
2018-10-12T18:25:38.789Z,8.57
2018-10-12T18:28:06.744Z,9.13
2018-10-12T18:30:34.723Z,8.20
2018-10-12T18:33:02.273Z,8.20
2018-10-12T18:35:30.944Z,8.43
2018-10-12T18:37:58.479Z,8.90
2018-10-12T18:40:26.008Z,9.87
2018-10-12T18:42:53.705Z,8.70
2018-10-12T18:45:21.225Z,8.90
2018-10-12T18:47:48.794Z,8.20
2018-10-12T18:50:16.318Z,8.93
2018-10-12T18:52:43.904Z,8.90
2018-10-12T18:55:11.744Z,8.37
2018-10-12T18:57:39.508Z,8.63
2018-10-12T19:00:08.477Z,7.90
2018-10-12T19:02:36.367Z,9.77
2018-10-12T19:05:04.053Z,9.37
2018-10-12T19:07:31.811Z,9.57
2018-10-12T19:10:00.684Z,9.67
2018-10-12T19:12:28.756Z,9.80
2018-10-12T19:14:56.622Z,10.10
2018-10-12T19:17:25.781Z,9.00
2018-10-12T19:19:53.556Z,9.30
2018-10-12T19:22:21.760Z,9.90
2018-10-12T19:24:49.660Z,10.00
2018-10-12T19:27:18.377Z,9.30
2018-10-12T19:29:45.931Z,9.83
2018-10-12T19:32:14.628Z,10.00
2018-10-12T19:34:42.127Z,10.50
2018-10-12T19:37:09.644Z,10.57
2018-10-12T19:39:38.691Z,10.47
2018-10-12T19:42:06.189Z,10.40
2018-10-12T19:44:33.704Z,10.50
2018-10-12T19:47:01.183Z,10.53
2018-10-12T19:49:28.737Z,10.20
2018-10-12T19:51:56.238Z,10.30
2018-10-12T19:54:23.803Z,11.77
2018-10-12T19:56:51.306Z,11.43
2018-10-12T19:59:18.890Z,10.93
2018-10-12T20:01:46.458Z,12.10
2018-10-12T20:04:13.936Z,11.80
2018-10-12T20:06:41.382Z,11.63
2018-10-12T20:09:10.517Z,11.63
2018-10-12T20:11:38.095Z,11.13
2018-10-12T20:14:05.840Z,12.93
2018-10-12T20:16:33.351Z,11.77
2018-10-12T20:19:01.069Z,12.47
2018-10-12T20:21:28.487Z,11.87
2018-10-12T20:24:01.102Z,11.60
2018-10-12T20:26:28.652Z,12.80
2018-10-12T20:28:56.139Z,13.97
2018-10-12T20:31:23.846Z,13.37
2018-10-12T20:33:51.294Z,12.47
2018-10-12T20:36:18.919Z,14.20
2018-10-12T20:38:46.536Z,13.87
2018-10-12T20:41:14.101Z,15.30
2018-10-12T20:43:41.662Z,15.40
2018-10-12T20:46:09.659Z,14.83
2018-10-12T20:48:37.259Z,14.07
2018-10-12T20:51:04.764Z,15.83
2018-10-12T20:53:32.412Z,15.90
2018-10-12T20:55:59.924Z,15.30
2018-10-12T20:58:27.491Z,16.87
2018-10-12T21:00:54.985Z,16.30
2018-10-12T21:03:22.466Z,17.20
2018-10-12T21:05:49.988Z,16.60
2018-10-12T21:08:17.470Z,16.23
2018-10-12T21:10:45.036Z,17.30
2018-10-12T21:13:12.461Z,16.20
2018-10-12T21:15:40.227Z,18.10
2018-10-12T21:18:07.677Z,17.13
2018-10-12T21:20:35.355Z,16.90
2018-10-12T21:23:02.808Z,18.20
2018-10-12T21:25:30.300Z,17.97
2018-10-12T21:27:57.771Z,18.23
2018-10-12T21:30:25.247Z,17.20
2018-10-12T21:32:52.747Z,16.80
2018-10-12T21:35:20.508Z,17.70
2018-10-12T21:37:48.024Z,17.90
2018-10-12T21:40:15.563Z,16.47
2018-10-12T21:42:43.007Z,18.40
2018-10-12T21:45:10.531Z,18.47
2018-10-12T21:47:38.054Z,18.13
2018-10-12T21:50:05.650Z,17.40
2018-10-12T21:52:33.201Z,17.83
2018-10-12T21:55:00.649Z,18.40
2018-10-12T21:57:28.174Z,17.93
2018-10-12T21:59:55.662Z,18.83
2018-10-12T22:02:23.276Z,19.10
2018-10-12T22:04:50.897Z,18.57
2018-10-12T22:07:18.380Z,19.20
2018-10-12T22:09:45.889Z,19.27
2018-10-12T22:12:13.375Z,18.50
2018-10-12T22:14:40.818Z,18.80
2018-10-12T22:17:08.320Z,18.43
2018-10-12T22:19:35.792Z,20.13
2018-10-12T22:22:03.330Z,18.80
2018-10-12T22:24:30.839Z,19.57
2018-10-12T22:26:58.473Z,19.10
2018-10-12T22:29:25.981Z,19.63
2018-10-12T22:31:53.481Z,20.67
2018-10-12T22:34:20.999Z,19.57
2018-10-12T22:36:48.438Z,20.00
2018-10-12T22:39:15.953Z,20.67
2018-10-12T22:41:43.395Z,19.73
2018-10-12T22:44:10.898Z,19.00
2018-10-12T22:46:44.762Z,19.07
2018-10-12T22:49:12.371Z,20.33
2018-10-12T22:51:39.901Z,19.77
2018-10-12T22:54:07.447Z,18.70
2018-10-12T22:56:34.915Z,19.47
2018-10-12T22:59:02.490Z,18.70
2018-10-12T23:01:30.015Z,19.20
2018-10-12T23:03:57.442Z,19.47
2018-10-12T23:06:24.943Z,19.17
2018-10-12T23:08:52.362Z,19.37
2018-10-12T23:11:19.850Z,18.77
2018-10-12T23:13:47.315Z,19.00
2018-10-12T23:16:14.932Z,19.70
2018-10-12T23:18:42.445Z,18.57
2018-10-12T23:21:09.969Z,19.47
2018-10-12T23:23:37.435Z,19.43
2018-10-12T23:26:04.987Z,18.30
2018-10-12T23:28:32.468Z,19.67
2018-10-12T23:31:00.003Z,19.50
2018-10-12T23:33:38.907Z,19.43
2018-10-12T23:36:06.382Z,19.80
2018-10-12T23:38:34.367Z,20.73
2018-10-12T23:41:01.889Z,21.30
2018-10-12T23:43:29.450Z,20.37
2018-10-12T23:45:56.958Z,20.27
2018-10-12T23:48:24.450Z,21.53
2018-10-12T23:50:51.903Z,21.57
2018-10-12T23:53:19.404Z,21.10
2018-10-12T23:55:46.918Z,20.63
2018-10-12T23:58:14.475Z,21.10
